sensor_id;sensor_type;location;lat;lon;timestamp;temperature;humidity
2621;DHT22;1320;48.128;11.592;2022-09-13T00:00:15;15.40;99.90
2621;DHT22;1320;48.128;11.592;2022-09-13T00:02:41;15.40;99.90
2621;DHT22;1320;48.128;11.592;2022-09-13T00:05:07;15.40;99.90
2621;DHT22;1320;48.128;11.592;2022-09-13T00:07:33;15.40;99.90
2621;DHT22;1320;48.128;11.592;2022-09-13T00:09:58;15.40;99.90
2621;DHT22;1320;48.128;11.592;2022-09-13T00:12:24;15.30;99.90
2621;DHT22;1320;48.128;11.592;2022-09-13T00:14:50;15.40;99.90
2621;DHT22;1320;48.128;11.592;2022-09-13T00:17:16;15.30;99.90
2621;DHT22;1320;48.128;11.592;2022-09-13T00:19:41;15.30;99.90
2621;DHT22;1320;48.128;11.592;2022-09-13T00:22:07;15.30;99.90
2621;DHT22;1320;48.128;11.592;2022-09-13T00:24:33;15.30;99.90
2621;DHT22;1320;48.128;11.592;2022-09-13T00:26:59;15.20;99.90
2621;DHT22;1320;48.128;11.592;2022-09-13T00:29:26;15.20;99.90
2621;DHT22;1320;48.128;11.592;2022-09-13T00:31:51;15.20;99.90
2621;DHT22;1320;48.128;11.592;2022-09-13T00:34:17;15.20;99.90
2621;DHT22;1320;48.128;11.592;2022-09-13T00:36:43;15.10;99.90
2621;DHT22;1320;48.128;11.592;2022-09-13T00:39:10;15.10;99.90
2621;DHT22;1320;48.128;11.592;2022-09-13T00:41:36;15.10;99.90
2621;DHT22;1320;48.128;11.592;2022-09-13T00:44:03;15.00;99.90
2621;DHT22;1320;48.128;11.592;2022-09-13T00:49:42;15.00;99.90
2621;DHT22;1320;48.128;11.592;2022-09-13T00:52:14;14.90;99.90
2621;DHT22;1320;48.128;11.592;2022-09-13T00:54:49;14.90;99.90
2621;DHT22;1320;48.128;11.592;2022-09-13T00:57:19;14.80;99.90
2621;DHT22;1320;48.128;11.592;2022-09-13T00:59:51;14.80;99.90
2621;DHT22;1320;48.128;11.592;2022-09-13T01:02:19;14.70;99.90
2621;DHT22;1320;48.128;11.592;2022-09-13T01:04:45;14.60;99.90
2621;DHT22;1320;48.128;11.592;2022-09-13T01:07:13;14.60;99.90
2621;DHT22;1320;48.128;11.592;2022-09-13T01:09:42;14.60;99.90
2621;DHT22;1320;48.128;11.592;2022-09-13T01:14:58;14.60;99.90
2621;DHT22;1320;48.128;11.592;2022-09-13T01:17:29;14.60;99.90
2621;DHT22;1320;48.128;11.592;2022-09-13T01:19:56;14.60;99.90
2621;DHT22;1320;48.128;11.592;2022-09-13T01:25:43;14.50;99.90
2621;DHT22;1320;48.128;11.592;2022-09-13T01:31:50;14.50;99.90
2621;DHT22;1320;48.128;11.592;2022-09-13T01:37:23;14.40;99.90
2621;DHT22;1320;48.128;11.592;2022-09-13T01:53:55;14.30;99.90
2621;DHT22;1320;48.128;11.592;2022-09-13T01:56:28;14.20;99.90
2621;DHT22;1320;48.128;11.592;2022-09-13T01:59:02;14.10;99.90
2621;DHT22;1320;48.128;11.592;2022-09-13T02:04:08;14.10;99.90
2621;DHT22;1320;48.128;11.592;2022-09-13T02:07:29;14.10;99.90
2621;DHT22;1320;48.128;11.592;2022-09-13T02:09:57;14.00;99.90
2621;DHT22;1320;48.128;11.592;2022-09-13T02:12:26;14.00;99.90
2621;DHT22;1320;48.128;11.592;2022-09-13T02:15:15;14.00;99.90
2621;DHT22;1320;48.128;11.592;2022-09-13T02:17:56;14.00;99.90
2621;DHT22;1320;48.128;11.592;2022-09-13T02:20:32;14.00;99.90
2621;DHT22;1320;48.128;11.592;2022-09-13T02:23:03;14.10;99.90
2621;DHT22;1320;48.128;11.592;2022-09-13T02:25:32;14.10;99.90
2621;DHT22;1320;48.128;11.592;2022-09-13T02:28:00;14.10;99.90
2621;DHT22;1320;48.128;11.592;2022-09-13T02:30:30;14.10;99.90
2621;DHT22;1320;48.128;11.592;2022-09-13T02:33:30;14.10;99.90
2621;DHT22;1320;48.128;11.592;2022-09-13T02:36:09;14.10;99.90
2621;DHT22;1320;48.128;11.592;2022-09-13T02:38:45;14.10;99.90
2621;DHT22;1320;48.128;11.592;2022-09-13T02:44:07;14.10;99.90
2621;DHT22;1320;48.128;11.592;2022-09-13T02:46:59;14.10;99.90
2621;DHT22;1320;48.128;11.592;2022-09-13T02:49:29;14.10;99.90
2621;DHT22;1320;48.128;11.592;2022-09-13T02:54:57;14.10;99.90
2621;DHT22;1320;48.128;11.592;2022-09-13T02:57:39;14.20;99.90
2621;DHT22;1320;48.128;11.592;2022-09-13T03:00:07;14.20;99.90
2621;DHT22;1320;48.128;11.592;2022-09-13T03:02:34;14.20;99.90
2621;DHT22;1320;48.128;11.592;2022-09-13T03:05:02;14.20;99.90
2621;DHT22;1320;48.128;11.592;2022-09-13T03:07:28;14.20;99.90
2621;DHT22;1320;48.128;11.592;2022-09-13T03:10:04;14.20;99.90
2621;DHT22;1320;48.128;11.592;2022-09-13T03:25:12;14.20;99.90
2621;DHT22;1320;48.128;11.592;2022-09-13T03:30:17;14.30;99.90
2621;DHT22;1320;48.128;11.592;2022-09-13T03:35:39;14.30;99.90
2621;DHT22;1320;48.128;11.592;2022-09-13T03:38:20;14.20;99.90
2621;DHT22;1320;48.128;11.592;2022-09-13T03:41:15;14.20;99.90
2621;DHT22;1320;48.128;11.592;2022-09-13T03:43:40;14.20;99.90
2621;DHT22;1320;48.128;11.592;2022-09-13T03:46:11;14.20;99.90
2621;DHT22;1320;48.128;11.592;2022-09-13T03:48:40;14.20;99.90
2621;DHT22;1320;48.128;11.592;2022-09-13T03:51:07;14.30;99.90
2621;DHT22;1320;48.128;11.592;2022-09-13T03:53:41;14.20;99.90
2621;DHT22;1320;48.128;11.592;2022-09-13T03:56:13;14.20;99.90
2621;DHT22;1320;48.128;11.592;2022-09-13T03:58:39;14.20;99.90
2621;DHT22;1320;48.128;11.592;2022-09-13T04:01:05;14.20;99.90
2621;DHT22;1320;48.128;11.592;2022-09-13T04:03:31;14.10;99.90
2621;DHT22;1320;48.128;11.592;2022-09-13T04:05:57;14.10;99.90
2621;DHT22;1320;48.128;11.592;2022-09-13T04:08:22;14.10;99.90
2621;DHT22;1320;48.128;11.592;2022-09-13T04:10:49;14.10;99.90
2621;DHT22;1320;48.128;11.592;2022-09-13T04:13:16;14.10;99.90
2621;DHT22;1320;48.128;11.592;2022-09-13T04:15:42;14.00;99.90
2621;DHT22;1320;48.128;11.592;2022-09-13T04:18:08;14.00;99.90
2621;DHT22;1320;48.128;11.592;2022-09-13T04:20:33;14.00;99.90
2621;DHT22;1320;48.128;11.592;2022-09-13T04:23:00;14.00;99.90
2621;DHT22;1320;48.128;11.592;2022-09-13T04:25:26;13.90;99.90
2621;DHT22;1320;48.128;11.592;2022-09-13T04:27:56;13.90;99.90
2621;DHT22;1320;48.128;11.592;2022-09-13T04:30:24;13.90;99.90
2621;DHT22;1320;48.128;11.592;2022-09-13T04:32:50;13.90;99.90
2621;DHT22;1320;48.128;11.592;2022-09-13T04:35:16;13.90;99.90
2621;DHT22;1320;48.128;11.592;2022-09-13T04:37:44;13.90;99.90
2621;DHT22;1320;48.128;11.592;2022-09-13T04:40:10;13.90;99.90
2621;DHT22;1320;48.128;11.592;2022-09-13T04:42:37;13.90;99.90
2621;DHT22;1320;48.128;11.592;2022-09-13T04:45:03;13.90;99.90
2621;DHT22;1320;48.128;11.592;2022-09-13T04:47:30;13.90;99.90
2621;DHT22;1320;48.128;11.592;2022-09-13T04:49:56;13.90;99.90
2621;DHT22;1320;48.128;11.592;2022-09-13T04:52:22;14.00;99.90
2621;DHT22;1320;48.128;11.592;2022-09-13T04:54:48;14.00;99.90
2621;DHT22;1320;48.128;11.592;2022-09-13T04:57:14;14.00;99.90
2621;DHT22;1320;48.128;11.592;2022-09-13T04:59:41;14.00;99.90
2621;DHT22;1320;48.128;11.592;2022-09-13T05:02:07;14.10;99.90
2621;DHT22;1320;48.128;11.592;2022-09-13T05:04:32;14.00;99.90
2621;DHT22;1320;48.128;11.592;2022-09-13T05:06:58;14.10;99.90
2621;DHT22;1320;48.128;11.592;2022-09-13T05:09:24;14.10;99.90
2621;DHT22;1320;48.128;11.592;2022-09-13T05:11:49;14.10;99.90
2621;DHT22;1320;48.128;11.592;2022-09-13T05:14:15;14.10;99.90
2621;DHT22;1320;48.128;11.592;2022-09-13T05:16:41;14.20;99.90
2621;DHT22;1320;48.128;11.592;2022-09-13T05:19:08;14.20;99.90
2621;DHT22;1320;48.128;11.592;2022-09-13T05:21:34;14.30;99.90
2621;DHT22;1320;48.128;11.592;2022-09-13T05:24:00;14.40;99.90
2621;DHT22;1320;48.128;11.592;2022-09-13T05:26:27;14.40;99.90
2621;DHT22;1320;48.128;11.592;2022-09-13T05:28:55;14.40;99.90
2621;DHT22;1320;48.128;11.592;2022-09-13T05:31:23;14.50;99.90
2621;DHT22;1320;48.128;11.592;2022-09-13T05:33:55;14.50;99.90
2621;DHT22;1320;48.128;11.592;2022-09-13T05:36:21;14.60;99.90
2621;DHT22;1320;48.128;11.592;2022-09-13T05:38:47;14.60;99.90
2621;DHT22;1320;48.128;11.592;2022-09-13T05:41:13;14.70;99.90
2621;DHT22;1320;48.128;11.592;2022-09-13T05:43:38;14.80;99.90
2621;DHT22;1320;48.128;11.592;2022-09-13T05:46:10;14.80;99.90
2621;DHT22;1320;48.128;11.592;2022-09-13T05:48:37;14.90;99.90
2621;DHT22;1320;48.128;11.592;2022-09-13T05:51:08;15.00;99.90
2621;DHT22;1320;48.128;11.592;2022-09-13T05:53:38;15.00;99.90
2621;DHT22;1320;48.128;11.592;2022-09-13T05:56:10;15.10;99.90
2621;DHT22;1320;48.128;11.592;2022-09-13T05:58:40;15.10;99.90
2621;DHT22;1320;48.128;11.592;2022-09-13T06:01:06;15.20;99.90
2621;DHT22;1320;48.128;11.592;2022-09-13T06:03:32;15.30;99.90
2621;DHT22;1320;48.128;11.592;2022-09-13T06:05:58;15.30;99.90
2621;DHT22;1320;48.128;11.592;2022-09-13T06:08:28;15.40;99.90
2621;DHT22;1320;48.128;11.592;2022-09-13T06:11:02;15.50;99.90
2621;DHT22;1320;48.128;11.592;2022-09-13T06:13:28;15.60;99.90
2621;DHT22;1320;48.128;11.592;2022-09-13T06:15:56;15.70;99.90
2621;DHT22;1320;48.128;11.592;2022-09-13T06:18:22;15.80;99.90
2621;DHT22;1320;48.128;11.592;2022-09-13T06:20:49;15.80;99.90
2621;DHT22;1320;48.128;11.592;2022-09-13T06:23:15;15.90;99.90
2621;DHT22;1320;48.128;11.592;2022-09-13T06:25:42;16.10;99.90
2621;DHT22;1320;48.128;11.592;2022-09-13T06:28:08;16.20;99.90
2621;DHT22;1320;48.128;11.592;2022-09-13T06:30:34;16.30;99.90
2621;DHT22;1320;48.128;11.592;2022-09-13T06:33:00;16.40;99.90
2621;DHT22;1320;48.128;11.592;2022-09-13T06:35:26;16.50;99.90
2621;DHT22;1320;48.128;11.592;2022-09-13T06:37:55;16.50;99.90
2621;DHT22;1320;48.128;11.592;2022-09-13T06:40:22;16.60;99.90
2621;DHT22;1320;48.128;11.592;2022-09-13T06:42:48;16.70;99.90
2621;DHT22;1320;48.128;11.592;2022-09-13T06:45:13;16.80;99.90
2621;DHT22;1320;48.128;11.592;2022-09-13T06:47:39;16.90;99.90
2621;DHT22;1320;48.128;11.592;2022-09-13T06:50:05;17.00;99.90
2621;DHT22;1320;48.128;11.592;2022-09-13T06:52:32;17.10;99.90
2621;DHT22;1320;48.128;11.592;2022-09-13T06:54:58;17.20;99.90
2621;DHT22;1320;48.128;11.592;2022-09-13T06:57:23;17.30;99.90
2621;DHT22;1320;48.128;11.592;2022-09-13T06:59:49;17.40;99.90
2621;DHT22;1320;48.128;11.592;2022-09-13T07:02:15;17.60;99.90
2621;DHT22;1320;48.128;11.592;2022-09-13T07:04:40;17.70;99.90
2621;DHT22;1320;48.128;11.592;2022-09-13T07:07:06;17.80;99.90
2621;DHT22;1320;48.128;11.592;2022-09-13T07:09:32;17.80;99.90
2621;DHT22;1320;48.128;11.592;2022-09-13T07:11:59;18.00;99.90
2621;DHT22;1320;48.128;11.592;2022-09-13T07:14:26;18.10;99.90
2621;DHT22;1320;48.128;11.592;2022-09-13T07:16:53;18.30;99.90
2621;DHT22;1320;48.128;11.592;2022-09-13T07:19:23;18.50;99.90
2621;DHT22;1320;48.128;11.592;2022-09-13T07:21:50;18.80;99.90
2621;DHT22;1320;48.128;11.592;2022-09-13T07:24:17;19.00;99.90
2621;DHT22;1320;48.128;11.592;2022-09-13T07:26:43;19.30;99.90
2621;DHT22;1320;48.128;11.592;2022-09-13T07:29:12;19.60;99.90
2621;DHT22;1320;48.128;11.592;2022-09-13T07:31:41;19.90;99.90
2621;DHT22;1320;48.128;11.592;2022-09-13T07:34:21;20.40;99.90
2621;DHT22;1320;48.128;11.592;2022-09-13T07:36:47;20.90;99.90
2621;DHT22;1320;48.128;11.592;2022-09-13T07:39:14;21.50;99.90
2621;DHT22;1320;48.128;11.592;2022-09-13T07:41:40;22.00;99.90
2621;DHT22;1320;48.128;11.592;2022-09-13T07:44:08;22.60;99.90
2621;DHT22;1320;48.128;11.592;2022-09-13T07:46:35;23.00;99.90
2621;DHT22;1320;48.128;11.592;2022-09-13T07:49:04;23.50;99.90
2621;DHT22;1320;48.128;11.592;2022-09-13T07:51:32;23.70;99.90
2621;DHT22;1320;48.128;11.592;2022-09-13T07:54:01;24.10;99.90
2621;DHT22;1320;48.128;11.592;2022-09-13T07:56:29;24.30;99.90
2621;DHT22;1320;48.128;11.592;2022-09-13T07:58:58;24.50;98.90
2621;DHT22;1320;48.128;11.592;2022-09-13T08:01:26;24.80;99.30
2621;DHT22;1320;48.128;11.592;2022-09-13T08:03:54;25.20;98.50
2621;DHT22;1320;48.128;11.592;2022-09-13T08:06:20;25.60;97.30
2621;DHT22;1320;48.128;11.592;2022-09-13T08:08:46;25.70;95.00
2621;DHT22;1320;48.128;11.592;2022-09-13T08:11:19;26.00;95.20
2621;DHT22;1320;48.128;11.592;2022-09-13T08:13:46;26.20;94.70
2621;DHT22;1320;48.128;11.592;2022-09-13T08:16:12;26.60;96.80
2621;DHT22;1320;48.128;11.592;2022-09-13T08:18:43;27.00;98.30
2621;DHT22;1320;48.128;11.592;2022-09-13T08:21:09;27.30;98.10
2621;DHT22;1320;48.128;11.592;2022-09-13T08:23:35;27.60;96.50
2621;DHT22;1320;48.128;11.592;2022-09-13T08:26:01;27.70;96.00
2621;DHT22;1320;48.128;11.592;2022-09-13T08:28:28;27.90;95.40
2621;DHT22;1320;48.128;11.592;2022-09-13T08:30:54;28.00;94.70
2621;DHT22;1320;48.128;11.592;2022-09-13T08:33:19;28.10;95.20
2621;DHT22;1320;48.128;11.592;2022-09-13T08:35:51;28.10;94.60
2621;DHT22;1320;48.128;11.592;2022-09-13T08:38:18;28.10;94.50
2621;DHT22;1320;48.128;11.592;2022-09-13T08:40:49;28.00;95.20
2621;DHT22;1320;48.128;11.592;2022-09-13T08:46:34;28.00;94.20
2621;DHT22;1320;48.128;11.592;2022-09-13T08:49:04;28.20;94.10
2621;DHT22;1320;48.128;11.592;2022-09-13T08:51:44;28.60;91.00
2621;DHT22;1320;48.128;11.592;2022-09-13T08:54:13;28.80;86.40
2621;DHT22;1320;48.128;11.592;2022-09-13T08:57:00;28.90;86.70
2621;DHT22;1320;48.128;11.592;2022-09-13T09:05:23;29.60;85.60
2621;DHT22;1320;48.128;11.592;2022-09-13T09:10:48;30.10;83.90
2621;DHT22;1320;48.128;11.592;2022-09-13T09:13:17;30.40;82.30
2621;DHT22;1320;48.128;11.592;2022-09-13T09:15:51;30.70;81.10
2621;DHT22;1320;48.128;11.592;2022-09-13T09:18:19;30.80;81.60
2621;DHT22;1320;48.128;11.592;2022-09-13T09:20:47;30.90;81.10
2621;DHT22;1320;48.128;11.592;2022-09-13T09:23:17;31.00;80.50
2621;DHT22;1320;48.128;11.592;2022-09-13T09:25:44;31.20;78.80
2621;DHT22;1320;48.128;11.592;2022-09-13T09:28:15;31.40;79.30
2621;DHT22;1320;48.128;11.592;2022-09-13T09:31:08;31.40;78.10
2621;DHT22;1320;48.128;11.592;2022-09-13T09:38:42;30.70;79.60
2621;DHT22;1320;48.128;11.592;2022-09-13T09:41:13;30.50;79.20
2621;DHT22;1320;48.128;11.592;2022-09-13T09:46:33;30.60;79.20
2621;DHT22;1320;48.128;11.592;2022-09-13T09:49:16;30.80;80.50
2621;DHT22;1320;48.128;11.592;2022-09-13T09:52:23;31.00;78.80
2621;DHT22;1320;48.128;11.592;2022-09-13T09:54:55;31.40;78.50
2621;DHT22;1320;48.128;11.592;2022-09-13T09:58:02;31.60;75.30
2621;DHT22;1320;48.128;11.592;2022-09-13T10:01:14;31.40;77.00
2621;DHT22;1320;48.128;11.592;2022-09-13T10:03:27;31.20;75.60
2621;DHT22;1320;48.128;11.592;2022-09-13T10:06:08;31.00;76.60
2621;DHT22;1320;48.128;11.592;2022-09-13T10:08:37;30.90;77.40
2621;DHT22;1320;48.128;11.592;2022-09-13T10:11:03;31.00;79.30
2621;DHT22;1320;48.128;11.592;2022-09-13T10:13:30;31.20;78.10
2621;DHT22;1320;48.128;11.592;2022-09-13T10:16:02;31.40;75.70
2621;DHT22;1320;48.128;11.592;2022-09-13T10:18:33;31.50;77.20
2621;DHT22;1320;48.128;11.592;2022-09-13T10:23:45;31.80;74.70
2621;DHT22;1320;48.128;11.592;2022-09-13T10:26:23;31.70;76.40
2621;DHT22;1320;48.128;11.592;2022-09-13T10:31:39;31.80;73.40
2621;DHT22;1320;48.128;11.592;2022-09-13T10:36:36;31.80;72.90
2621;DHT22;1320;48.128;11.592;2022-09-13T10:39:05;31.70;75.00
2621;DHT22;1320;48.128;11.592;2022-09-13T10:41:34;31.70;73.60
2621;DHT22;1320;48.128;11.592;2022-09-13T10:44:05;31.70;74.90
2621;DHT22;1320;48.128;11.592;2022-09-13T10:46:35;31.80;74.80
2621;DHT22;1320;48.128;11.592;2022-09-13T10:49:01;32.00;73.00
2621;DHT22;1320;48.128;11.592;2022-09-13T10:51:31;32.10;72.30
2621;DHT22;1320;48.128;11.592;2022-09-13T10:56:45;32.00;70.50
2621;DHT22;1320;48.128;11.592;2022-09-13T11:07:39;31.90;70.80
2621;DHT22;1320;48.128;11.592;2022-09-13T11:16:04;31.80;72.80
2621;DHT22;1320;48.128;11.592;2022-09-13T11:20:44;32.00;71.10
2621;DHT22;1320;48.128;11.592;2022-09-13T11:26:34;32.00;72.90
2621;DHT22;1320;48.128;11.592;2022-09-13T11:31:58;31.70;74.30
2621;DHT22;1320;48.128;11.592;2022-09-13T11:50:36;31.20;71.50
2621;DHT22;1320;48.128;11.592;2022-09-13T11:56:12;31.00;73.00
2621;DHT22;1320;48.128;11.592;2022-09-13T11:58:53;30.80;71.20
2621;DHT22;1320;48.128;11.592;2022-09-13T12:01:27;30.70;73.40
2621;DHT22;1320;48.128;11.592;2022-09-13T12:04:16;30.60;75.40
2621;DHT22;1320;48.128;11.592;2022-09-13T12:06:53;30.50;73.10
2621;DHT22;1320;48.128;11.592;2022-09-13T12:09:28;30.40;74.00
2621;DHT22;1320;48.128;11.592;2022-09-13T12:12:07;30.50;74.90
2621;DHT22;1320;48.128;11.592;2022-09-13T12:14:49;30.50;73.90
2621;DHT22;1320;48.128;11.592;2022-09-13T12:17:39;30.50;74.20
2621;DHT22;1320;48.128;11.592;2022-09-13T12:20:26;30.50;72.80
2621;DHT22;1320;48.128;11.592;2022-09-13T12:22:54;30.50;76.00
2621;DHT22;1320;48.128;11.592;2022-09-13T12:25:38;30.80;73.10
2621;DHT22;1320;48.128;11.592;2022-09-13T12:28:25;30.80;73.50
2621;DHT22;1320;48.128;11.592;2022-09-13T12:31:03;31.20;72.90
2621;DHT22;1320;48.128;11.592;2022-09-13T12:33:29;31.40;74.70
2621;DHT22;1320;48.128;11.592;2022-09-13T12:44:40;32.00;70.50
2621;DHT22;1320;48.128;11.592;2022-09-13T13:11:47;32.90;69.20
2621;DHT22;1320;48.128;11.592;2022-09-13T13:57:48;34.90;59.50
2621;DHT22;1320;48.128;11.592;2022-09-13T14:10:53;34.90;58.60
2621;DHT22;1320;48.128;11.592;2022-09-13T14:13:39;35.00;57.50
2621;DHT22;1320;48.128;11.592;2022-09-13T14:16:36;35.00;57.20
2621;DHT22;1320;48.128;11.592;2022-09-13T14:19:23;35.00;57.40
2621;DHT22;1320;48.128;11.592;2022-09-13T14:24:38;34.60;59.90
2621;DHT22;1320;48.128;11.592;2022-09-13T14:27:13;34.20;58.60
2621;DHT22;1320;48.128;11.592;2022-09-13T14:29:43;33.90;60.90
2621;DHT22;1320;48.128;11.592;2022-09-13T14:32:16;33.50;61.70
2621;DHT22;1320;48.128;11.592;2022-09-13T14:34:50;33.20;61.40
2621;DHT22;1320;48.128;11.592;2022-09-13T14:37:18;33.00;63.40
2621;DHT22;1320;48.128;11.592;2022-09-13T14:40:23;32.80;63.00
2621;DHT22;1320;48.128;11.592;2022-09-13T14:42:51;32.70;64.30
2621;DHT22;1320;48.128;11.592;2022-09-13T14:45:25;32.60;65.00
2621;DHT22;1320;48.128;11.592;2022-09-13T14:48:00;32.60;63.30
2621;DHT22;1320;48.128;11.592;2022-09-13T14:50:31;32.40;64.50
2621;DHT22;1320;48.128;11.592;2022-09-13T14:53:05;32.30;64.90
2621;DHT22;1320;48.128;11.592;2022-09-13T14:58:23;32.10;66.40
2621;DHT22;1320;48.128;11.592;2022-09-13T15:01:02;32.10;65.20
2621;DHT22;1320;48.128;11.592;2022-09-13T15:03:29;32.30;64.40
2621;DHT22;1320;48.128;11.592;2022-09-13T15:05:58;32.50;65.00
2621;DHT22;1320;48.128;11.592;2022-09-13T15:11:04;32.50;64.50
2621;DHT22;1320;48.128;11.592;2022-09-13T15:13:31;32.40;65.30
2621;DHT22;1320;48.128;11.592;2022-09-13T15:15:57;32.30;65.10
2621;DHT22;1320;48.128;11.592;2022-09-13T15:18:33;32.20;65.10
2621;DHT22;1320;48.128;11.592;2022-09-13T15:21:12;32.10;65.40
2621;DHT22;1320;48.128;11.592;2022-09-13T15:23:48;31.90;65.90
2621;DHT22;1320;48.128;11.592;2022-09-13T15:26:24;31.60;66.90
2621;DHT22;1320;48.128;11.592;2022-09-13T15:28:51;31.30;67.00
2621;DHT22;1320;48.128;11.592;2022-09-13T15:31:23;31.00;66.90
2621;DHT22;1320;48.128;11.592;2022-09-13T15:34:10;30.80;68.20
2621;DHT22;1320;48.128;11.592;2022-09-13T15:36:36;30.60;68.60
2621;DHT22;1320;48.128;11.592;2022-09-13T15:41:35;30.40;68.40
2621;DHT22;1320;48.128;11.592;2022-09-13T15:44:04;30.30;69.30
2621;DHT22;1320;48.128;11.592;2022-09-13T15:46:30;30.20;68.90
2621;DHT22;1320;48.128;11.592;2022-09-13T15:48:58;30.10;69.50
2621;DHT22;1320;48.128;11.592;2022-09-13T15:51:24;30.10;69.20
2621;DHT22;1320;48.128;11.592;2022-09-13T15:53:51;29.90;69.20
2621;DHT22;1320;48.128;11.592;2022-09-13T15:56:34;29.50;69.50
2621;DHT22;1320;48.128;11.592;2022-09-13T15:59:04;29.00;70.50
2621;DHT22;1320;48.128;11.592;2022-09-13T16:01:30;28.60;71.20
2621;DHT22;1320;48.128;11.592;2022-09-13T16:03:56;28.30;71.10
2621;DHT22;1320;48.128;11.592;2022-09-13T16:06:22;28.10;70.70
2621;DHT22;1320;48.128;11.592;2022-09-13T16:08:47;27.90;71.20
2621;DHT22;1320;48.128;11.592;2022-09-13T16:11:13;27.80;71.60
2621;DHT22;1320;48.128;11.592;2022-09-13T16:13:39;27.60;72.30
2621;DHT22;1320;48.128;11.592;2022-09-13T16:16:04;27.50;73.40
2621;DHT22;1320;48.128;11.592;2022-09-13T16:18:30;27.40;74.40
2621;DHT22;1320;48.128;11.592;2022-09-13T16:20:56;27.40;76.20
2621;DHT22;1320;48.128;11.592;2022-09-13T16:23:22;27.30;77.50
2621;DHT22;1320;48.128;11.592;2022-09-13T16:25:53;27.30;78.40
2621;DHT22;1320;48.128;11.592;2022-09-13T16:28:20;27.30;79.20
2621;DHT22;1320;48.128;11.592;2022-09-13T16:30:46;27.30;79.70
2621;DHT22;1320;48.128;11.592;2022-09-13T16:33:12;27.30;80.30
2621;DHT22;1320;48.128;11.592;2022-09-13T16:35:38;27.30;80.60
2621;DHT22;1320;48.128;11.592;2022-09-13T16:38:04;27.30;81.00
2621;DHT22;1320;48.128;11.592;2022-09-13T16:40:29;27.30;81.00
2621;DHT22;1320;48.128;11.592;2022-09-13T16:42:55;27.40;81.30
2621;DHT22;1320;48.128;11.592;2022-09-13T16:45:21;27.40;81.70
2621;DHT22;1320;48.128;11.592;2022-09-13T16:47:47;27.40;82.00
2621;DHT22;1320;48.128;11.592;2022-09-13T16:50:13;27.30;82.30
2621;DHT22;1320;48.128;11.592;2022-09-13T16:52:39;27.30;82.40
2621;DHT22;1320;48.128;11.592;2022-09-13T16:55:05;27.30;82.40
2621;DHT22;1320;48.128;11.592;2022-09-13T16:57:31;27.30;82.70
2621;DHT22;1320;48.128;11.592;2022-09-13T16:59:57;27.20;82.90
2621;DHT22;1320;48.128;11.592;2022-09-13T17:02:24;27.20;83.20
2621;DHT22;1320;48.128;11.592;2022-09-13T17:04:50;27.10;83.20
2621;DHT22;1320;48.128;11.592;2022-09-13T17:07:15;27.10;83.40
2621;DHT22;1320;48.128;11.592;2022-09-13T17:09:41;27.00;83.70
2621;DHT22;1320;48.128;11.592;2022-09-13T17:12:09;27.00;83.90
2621;DHT22;1320;48.128;11.592;2022-09-13T17:14:35;26.90;83.60
2621;DHT22;1320;48.128;11.592;2022-09-13T17:17:02;26.90;83.50
2621;DHT22;1320;48.128;11.592;2022-09-13T17:19:31;26.80;83.70
2621;DHT22;1320;48.128;11.592;2022-09-13T17:22:01;26.70;84.50
2621;DHT22;1320;48.128;11.592;2022-09-13T17:24:29;26.70;84.80
2621;DHT22;1320;48.128;11.592;2022-09-13T17:26:56;26.60;84.60
2621;DHT22;1320;48.128;11.592;2022-09-13T17:29:22;26.60;84.70
2621;DHT22;1320;48.128;11.592;2022-09-13T17:31:50;26.50;84.70
2621;DHT22;1320;48.128;11.592;2022-09-13T17:34:16;26.50;84.80
2621;DHT22;1320;48.128;11.592;2022-09-13T17:36:47;26.40;85.40
2621;DHT22;1320;48.128;11.592;2022-09-13T17:39:13;26.40;85.80
2621;DHT22;1320;48.128;11.592;2022-09-13T17:41:39;26.30;85.90
2621;DHT22;1320;48.128;11.592;2022-09-13T17:44:05;26.30;86.00
2621;DHT22;1320;48.128;11.592;2022-09-13T17:46:30;26.20;86.00
2621;DHT22;1320;48.128;11.592;2022-09-13T17:48:58;26.20;86.20
2621;DHT22;1320;48.128;11.592;2022-09-13T17:51:29;26.10;86.10
2621;DHT22;1320;48.128;11.592;2022-09-13T17:54:00;26.00;86.40
2621;DHT22;1320;48.128;11.592;2022-09-13T17:56:27;26.00;86.80
2621;DHT22;1320;48.128;11.592;2022-09-13T17:59:07;25.90;87.00
2621;DHT22;1320;48.128;11.592;2022-09-13T18:01:38;25.90;87.40
2621;DHT22;1320;48.128;11.592;2022-09-13T18:04:04;25.80;87.90
2621;DHT22;1320;48.128;11.592;2022-09-13T18:06:32;25.80;88.30
2621;DHT22;1320;48.128;11.592;2022-09-13T18:08:58;25.70;88.50
2621;DHT22;1320;48.128;11.592;2022-09-13T18:11:24;25.70;88.70
2621;DHT22;1320;48.128;11.592;2022-09-13T18:13:50;25.70;89.00
2621;DHT22;1320;48.128;11.592;2022-09-13T18:16:22;25.60;89.20
2621;DHT22;1320;48.128;11.592;2022-09-13T18:18:49;25.50;89.60
2621;DHT22;1320;48.128;11.592;2022-09-13T18:21:16;25.50;89.60
2621;DHT22;1320;48.128;11.592;2022-09-13T18:23:43;25.40;89.90
2621;DHT22;1320;48.128;11.592;2022-09-13T18:26:11;25.30;90.10
2621;DHT22;1320;48.128;11.592;2022-09-13T18:28:37;25.30;90.20
2621;DHT22;1320;48.128;11.592;2022-09-13T18:31:05;25.20;90.20
2621;DHT22;1320;48.128;11.592;2022-09-13T18:33:31;25.20;90.40
2621;DHT22;1320;48.128;11.592;2022-09-13T18:36:02;25.10;90.60
2621;DHT22;1320;48.128;11.592;2022-09-13T18:38:32;25.10;90.80
2621;DHT22;1320;48.128;11.592;2022-09-13T18:40:59;25.00;91.00
2621;DHT22;1320;48.128;11.592;2022-09-13T18:43:25;25.00;91.20
2621;DHT22;1320;48.128;11.592;2022-09-13T18:45:56;24.90;91.40
2621;DHT22;1320;48.128;11.592;2022-09-13T18:48:36;24.90;91.50
2621;DHT22;1320;48.128;11.592;2022-09-13T18:51:02;24.80;91.60
2621;DHT22;1320;48.128;11.592;2022-09-13T18:53:28;24.70;91.80
2621;DHT22;1320;48.128;11.592;2022-09-13T18:55:54;24.70;92.00
2621;DHT22;1320;48.128;11.592;2022-09-13T18:58:21;24.60;92.00
2621;DHT22;1320;48.128;11.592;2022-09-13T19:01:02;24.60;92.20
2621;DHT22;1320;48.128;11.592;2022-09-13T19:03:28;24.50;92.40
2621;DHT22;1320;48.128;11.592;2022-09-13T19:05:53;24.50;92.60
2621;DHT22;1320;48.128;11.592;2022-09-13T19:08:19;24.50;92.70
2621;DHT22;1320;48.128;11.592;2022-09-13T19:10:45;24.40;92.90
2621;DHT22;1320;48.128;11.592;2022-09-13T19:13:10;24.40;93.10
2621;DHT22;1320;48.128;11.592;2022-09-13T19:15:36;24.40;93.20
2621;DHT22;1320;48.128;11.592;2022-09-13T19:18:02;24.40;93.40
2621;DHT22;1320;48.128;11.592;2022-09-13T19:20:27;24.30;93.50
2621;DHT22;1320;48.128;11.592;2022-09-13T19:22:53;24.30;93.70
2621;DHT22;1320;48.128;11.592;2022-09-13T19:25:19;24.20;93.80
2621;DHT22;1320;48.128;11.592;2022-09-13T19:27:47;24.20;94.10
2621;DHT22;1320;48.128;11.592;2022-09-13T19:30:12;24.10;94.10
2621;DHT22;1320;48.128;11.592;2022-09-13T19:32:38;24.10;94.30
2621;DHT22;1320;48.128;11.592;2022-09-13T19:35:04;24.10;94.50
2621;DHT22;1320;48.128;11.592;2022-09-13T19:37:30;24.10;94.60
2621;DHT22;1320;48.128;11.592;2022-09-13T19:39:56;24.00;94.70
2621;DHT22;1320;48.128;11.592;2022-09-13T19:42:22;24.00;94.70
2621;DHT22;1320;48.128;11.592;2022-09-13T19:44:47;24.00;94.90
2621;DHT22;1320;48.128;11.592;2022-09-13T19:47:13;24.00;95.00